Time;durP1;ratioP1;P1;durP2;ratioP2;P2;SDS_P1;SDS_P2;PMS_P1;PMS_P2;Temp;Humidity;BMP_temperature;BMP_pressure;BME280_temperature;BME280_humidity;BME280_pressure;Samples;Min_cycle;Max_cycle;Signal;HPM_P1;HPM_P2
2023/08/21 00:01:39;;;;;;;10.67;9.57;;;;;;;25.57;99.84;98669.47;4168356;28;20647;-82
2023/08/21 00:03:42;;;;;;;10.97;9.57;;;;;;;25.57;99.77;98665.97;4171526;28;20736;-82
2023/08/21 00:05:46;;;;;;;11.03;9.73;;;;;;;25.56;99.65;98667.84;4166014;28;20664;-84
2023/08/21 00:07:50;;;;;;;11.03;9.93;;;;;;;25.56;99.59;98666.97;4155591;28;21063;-83
2023/08/21 00:09:54;;;;;;;12.73;8.93;;;;;;;25.53;99.38;98676.22;4157410;28;21249;-82
2023/08/21 00:11:57;;;;;;;11.20;10.10;;;;;;;25.52;98.97;98666.53;4171684;28;20642;-81
2023/08/21 00:14:00;;;;;;;10.63;9.07;;;;;;;25.50;99.20;98663.22;4169428;28;20767;-81
2023/08/21 00:16:03;;;;;;;10.87;9.77;;;;;;;25.50;99.71;98665.03;4162858;28;20665;-81
2023/08/21 00:18:07;;;;;;;10.77;9.77;;;;;;;25.48;99.88;98667.91;4156399;28;20657;-81
2023/08/21 00:20:12;;;;;;;18.23;10.27;;;;;;;25.49;100.00;98666.91;4162699;28;20629;-82
2023/08/21 00:22:15;;;;;;;10.30;9.20;;;;;;;25.51;99.61;98672.88;4168596;28;20665;-82
2023/08/21 00:24:18;;;;;;;10.63;9.30;;;;;;;25.49;100.00;98672.25;4167053;28;20633;-82
2023/08/21 00:26:21;;;;;;;11.03;9.73;;;;;;;25.49;99.73;98682.09;4166193;28;20683;-82
2023/08/21 00:28:24;;;;;;;11.50;9.80;;;;;;;25.48;100.00;98681.25;4154250;28;20691;-81
2023/08/21 00:30:27;;;;;;;10.10;9.10;;;;;;;25.47;100.00;98679.63;4146870;28;20648;-82
2023/08/21 00:32:31;;;;;;;10.73;9.63;;;;;;;25.46;100.00;98671.78;4163629;28;20702;-80
2023/08/21 00:34:35;;;;;;;11.37;9.60;;;;;;;25.45;100.00;98668.25;4163910;28;20648;-82
2023/08/21 00:36:39;;;;;;;11.60;9.17;;;;;;;25.45;100.00;98670.94;4167426;28;20722;-81
2023/08/21 00:38:42;;;;;;;9.40;8.40;;;;;;;25.44;99.97;98679.13;4172041;28;20724;-82
2023/08/21 00:40:45;;;;;;;10.30;8.50;;;;;;;25.43;100.00;98672.97;4171430;28;21034;-82
2023/08/21 00:42:48;;;;;;;10.30;9.30;;;;;;;25.39;99.53;98666.31;4171725;28;20741;-80
2023/08/21 00:44:51;;;;;;;10.20;8.87;;;;;;;25.39;100.00;98662.81;4168835;28;20638;-82
2023/08/21 00:46:54;;;;;;;11.47;10.27;;;;;;;25.38;100.00;98667.34;4162267;28;20741;-83
2023/08/21 00:48:58;;;;;;;11.80;9.10;;;;;;;25.38;100.00;98671.84;4161106;28;20642;-80
2023/08/21 00:51:04;;;;;;;17.60;9.70;;;;;;;25.38;100.00;98671.84;4164130;28;20635;-83
2023/08/21 00:53:07;;;;;;;10.33;9.23;;;;;;;25.39;100.00;98673.50;4167367;28;21071;-81
2023/08/21 00:55:10;;;;;;;9.10;8.20;;;;;;;25.39;99.75;98678.84;4168095;28;20781;-82
2023/08/21 00:57:14;;;;;;;12.00;9.27;;;;;;;25.38;99.76;98675.38;4181404;28;20683;-82
2023/08/21 00:59:17;;;;;;;10.20;9.23;;;;;;;25.36;100.00;98672.03;4160979;28;20638;-83
2023/08/21 01:01:22;;;;;;;10.03;8.60;;;;;;;25.35;100.00;98658.84;4165041;28;20643;-82
2023/08/21 01:03:26;;;;;;;9.63;8.73;;;;;;;25.35;100.00;98657.03;4165437;28;20652;-82
2023/08/21 01:05:30;;;;;;;10.27;9.13;;;;;;;25.33;99.45;98656.41;4151808;28;20767;-82
2023/08/21 01:07:39;;;;;;;13.73;8.83;;;;;;;25.32;99.26;98657.38;4154704;28;20661;-81
2023/08/21 01:09:49;;;;;;;9.70;8.70;;;;;;;25.31;99.73;98653.06;4166838;28;21066;-83
2023/08/21 01:11:56;;;;;;;9.63;8.63;;;;;;;25.30;99.39;98659.44;4154082;28;20621;-82
2023/08/21 01:14:04;;;;;;;10.50;9.40;;;;;;;25.29;99.73;98659.59;4153411;28;21207;-82
2023/08/21 01:16:08;;;;;;;10.17;9.13;;;;;;;25.26;99.66;98658.13;4161963;28;21211;-82
2023/08/21 01:18:11;;;;;;;10.10;8.77;;;;;;;25.23;100.00;98663.81;4151127;28;20633;-82
2023/08/21 01:20:16;;;;;;;10.33;8.43;;;;;;;25.16;100.00;98673.56;4152237;28;20637;-81
2023/08/21 01:22:19;;;;;;;8.63;7.83;;;;;;;25.12;99.82;98667.94;4170238;28;21092;-81
2023/08/21 01:24:23;;;;;;;9.97;8.43;;;;;;;25.08;100.00;98675.50;4151168;28;20639;-81
2023/08/21 01:26:26;;;;;;;9.77;8.60;;;;;;;25.05;99.82;98665.19;4162706;28;20640;-82
2023/08/21 01:28:30;;;;;;;9.87;8.80;;;;;;;25.03;100.00;98666.34;4170681;28;20714;-82
2023/08/21 01:30:34;;;;;;;12.90;8.60;;;;;;;25.01;100.00;98663.03;4155367;28;20658;-82
2023/08/21 01:32:41;;;;;;;9.27;8.33;;;;;;;24.98;100.00;98664.19;4170124;28;20723;-82
2023/08/21 01:34:45;;;;;;;9.70;8.80;;;;;;;24.95;100.00;98661.88;4149029;28;20683;-81
2023/08/21 01:36:48;;;;;;;9.47;8.57;;;;;;;24.93;100.00;98669.25;4149310;28;20682;-83
2023/08/21 01:38:52;;;;;;;10.70;9.60;;;;;;;24.92;100.00;98667.59;4163525;28;20627;-82
2023/08/21 01:40:56;;;;;;;9.07;8.03;;;;;;;24.83;100.00;98663.31;4170340;28;20754;-82
2023/08/21 01:42:59;;;;;;;10.03;8.97;;;;;;;24.76;100.00;98667.72;4169415;28;21324;-82
2023/08/21 01:45:03;;;;;;;11.10;9.80;;;;;;;24.71;100.00;98666.59;4158434;28;20654;-82
2023/08/21 01:47:07;;;;;;;10.50;9.40;;;;;;;24.70;100.00;98663.09;4165465;28;20625;-83
2023/08/21 01:49:12;;;;;;;9.77;8.77;;;;;;;24.70;100.00;98659.59;4165254;28;20642;-82
2023/08/21 01:51:16;;;;;;;10.00;9.00;;;;;;;24.68;100.00;98658.94;4164165;28;20799;-82
2023/08/21 01:53:20;;;;;;;10.10;9.10;;;;;;;24.66;100.00;98651.09;4160810;28;21077;-82
2023/08/21 01:55:23;;;;;;;11.37;9.70;;;;;;;24.66;100.00;98656.44;4155286;28;20724;-82
2023/08/21 01:57:27;;;;;;;10.50;9.50;;;;;;;24.67;100.00;98650.13;4158865;28;21511;-82
2023/08/21 01:59:31;;;;;;;11.93;9.70;;;;;;;24.69;100.00;98644.59;4170328;28;20628;-80
2023/08/21 02:01:34;;;;;;;10.13;9.10;;;;;;;24.68;100.00;98651.75;4163554;28;20671;-76
2023/08/21 02:03:38;;;;;;;10.17;9.10;;;;;;;24.68;100.00;98654.41;4168280;28;20645;-76
2023/08/21 02:05:42;;;;;;;9.17;8.37;;;;;;;24.66;100.00;98653.78;4168309;28;20674;-77
2023/08/21 02:07:45;;;;;;;10.80;9.00;;;;;;;24.65;100.00;98659.28;4159455;28;20670;-76
2023/08/21 02:09:48;;;;;;;10.80;9.70;;;;;;;24.63;100.00;98651.47;4148047;28;20638;-76
2023/08/21 02:11:51;;;;;;;10.20;8.77;;;;;;;24.61;100.00;98657.16;4168190;28;20634;-76
2023/08/21 02:13:56;;;;;;;10.90;9.80;;;;;;;24.59;100.00;98657.34;4172921;28;20643;-75
2023/08/21 02:16:01;;;;;;;12.90;9.50;;;;;;;24.58;100.00;98655.66;4169137;28;20708;-75
2023/08/21 02:18:05;;;;;;;9.40;8.50;;;;;;;24.57;100.00;98661.19;4167547;28;20652;-78
2023/08/21 02:20:10;;;;;;;9.27;8.37;;;;;;;24.52;100.00;98655.56;4172196;28;21033;-78
2023/08/21 02:22:13;;;;;;;9.87;8.70;;;;;;;24.47;100.00;98656.09;4170236;28;21068;-75
2023/08/21 02:24:16;;;;;;;10.07;8.80;;;;;;;24.42;100.00;98653.13;4172981;28;20681;-77
2023/08/21 02:26:20;;;;;;;9.80;8.80;;;;;;;24.38;100.00;98654.47;4161428;28;21236;-77
2023/08/21 02:28:23;;;;;;;11.53;10.33;;;;;;;24.36;100.00;98653.84;4153703;28;20656;-75
2023/08/21 02:30:29;;;;;;;10.70;9.60;;;;;;;24.34;100.00;98655.84;4172132;28;20631;-77
2023/08/21 02:32:32;;;;;;;10.43;9.43;;;;;;;24.33;100.00;98654.19;4171088;28;20977;-75
2023/08/21 02:34:36;;;;;;;10.43;9.43;;;;;;;24.32;100.00;98663.19;4168492;28;20640;-76
2023/08/21 02:36:39;;;;;;;10.17;9.17;;;;;;;24.31;100.00;98661.50;4167119;28;20912;-76
2023/08/21 02:38:42;;;;;;;11.17;9.27;;;;;;;24.28;100.00;98661.84;4167807;28;20660;-76
2023/08/21 02:40:45;;;;;;;10.77;9.57;;;;;;;24.29;100.00;98657.34;4155492;28;20694;-76
2023/08/21 02:42:48;;;;;;;10.33;8.63;;;;;;;24.30;100.00;98664.34;4154179;28;20645;-75
2023/08/21 02:44:51;;;;;;;12.10;9.40;;;;;;;24.32;100.00;98665.00;4164853;28;20643;-77
2023/08/21 02:46:56;;;;;;;11.33;9.77;;;;;;;24.32;100.00;98659.66;4169100;28;20635;-77
2023/08/21 02:48:59;;;;;;;9.83;8.83;;;;;;;24.32;100.00;98667.66;4173686;28;20640;-76
2023/08/21 02:51:03;;;;;;;10.67;8.90;;;;;;;24.31;100.00;98658.84;4172954;28;20635;-75
2023/08/21 02:53:08;;;;;;;11.03;9.77;;;;;;;24.30;100.00;98675.03;4156030;28;20735;-76
2023/08/21 02:55:10;;;;;;;10.23;9.13;;;;;;;24.25;100.00;98667.53;4155026;28;20747;-77
2023/08/21 02:57:13;;;;;;;10.53;9.43;;;;;;;24.20;100.00;98669.88;4171998;28;21105;-77
2023/08/21 02:59:16;;;;;;;9.67;8.70;;;;;;;24.18;100.00;98671.09;4170747;28;20628;-76
2023/08/21 03:01:19;;;;;;;10.90;9.57;;;;;;;24.15;100.00;98668.75;4156286;28;20664;-76
2023/08/21 03:03:24;;;;;;;14.63;8.87;;;;;;;24.13;100.00;98669.94;4169733;28;20700;-75
2023/08/21 03:05:26;;;;;;;10.47;9.20;;;;;;;24.12;100.00;98670.97;4174813;28;20619;-75
2023/08/21 03:07:29;;;;;;;10.90;9.00;;;;;;;24.12;100.00;98668.28;4178865;28;20645;-76
2023/08/21 03:09:32;;;;;;;9.30;8.40;;;;;;;24.11;100.00;98671.97;4157119;28;20637;-76
2023/08/21 03:11:35;;;;;;;12.27;9.33;;;;;;;24.08;100.00;98673.13;4169395;28;21366;-76
2023/08/21 03:13:38;;;;;;;13.10;9.37;;;;;;;24.05;100.00;98673.47;4189383;28;20641;-76
2023/08/21 03:15:42;;;;;;;12.67;8.50;;;;;;;24.02;100.00;98667.66;4162171;28;20726;-76
2023/08/21 03:17:45;;;;;;;9.90;8.90;;;;;;;23.97;100.00;98673.53;4171387;28;21001;-77
2023/08/21 03:19:50;;;;;;;9.50;8.10;;;;;;;23.95;100.00;98675.53;4181696;28;21225;-76
2023/08/21 03:21:53;;;;;;;10.33;9.03;;;;;;;23.95;100.00;98672.03;4174492;28;20660;-75
2023/08/21 03:23:59;;;;;;;10.17;9.17;;;;;;;23.93;100.00;98671.38;4150354;28;20634;-76
2023/08/21 03:26:06;;;;;;;9.67;8.70;;;;;;;23.91;100.00;98676.06;4169291;28;20968;-75
2023/08/21 03:28:09;;;;;;;10.30;7.97;;;;;;;23.90;100.00;98677.03;4172857;28;20635;-76
2023/08/21 03:30:14;;;;;;;9.30;8.30;;;;;;;23.90;100.00;98671.72;4165808;28;20650;-76
2023/08/21 03:32:17;;;;;;;9.60;8.43;;;;;;;23.90;100.00;98679.72;4168906;28;21119;-78
2023/08/21 03:34:20;;;;;;;10.87;9.67;;;;;;;23.87;100.00;98678.22;4168030;28;20629;-76
2023/08/21 03:36:31;;;;;;;9.43;8.43;;;;;;;23.85;100.00;98682.06;4155470;28;20647;-76
2023/08/21 03:38:36;;;;;;;9.67;8.40;;;;;;;23.83;100.00;98692.06;4165070;28;20691;-76
2023/08/21 03:40:40;;;;;;;10.60;9.00;;;;;;;23.81;100.00;98683.41;4168822;28;20674;-76
2023/08/21 03:42:43;;;;;;;10.70;8.73;;;;;;;23.79;100.00;98680.09;4167814;28;20640;-76
2023/08/21 03:44:49;;;;;;;10.50;8.53;;;;;;;23.79;100.00;98685.44;4153116;28;20743;-77
2023/08/21 03:46:52;;;;;;;11.57;9.97;;;;;;;23.78;100.00;98683.75;4165968;28;21426;-76
2023/08/21 03:48:56;;;;;;;9.40;8.50;;;;;;;23.75;100.00;98684.09;4153026;28;21254;-76
2023/08/21 03:50:59;;;;;;;11.87;9.57;;;;;;;23.70;100.00;98681.94;4154572;28;20633;-77
2023/08/21 03:53:03;;;;;;;10.63;9.53;;;;;;;23.67;100.00;98684.94;4171432;28;20644;-75
2023/08/21 03:55:06;;;;;;;10.23;8.50;;;;;;;23.68;100.00;98688.47;4169386;28;20635;-76
2023/08/21 03:57:09;;;;;;;10.10;8.73;;;;;;;23.67;100.00;98689.47;4174249;28;20662;-76
2023/08/21 03:59:13;;;;;;;10.40;8.87;;;;;;;23.68;100.00;98691.97;4169672;28;20796;-76
2023/08/21 04:01:16;;;;;;;9.27;8.23;;;;;;;23.69;100.00;98695.44;4166827;28;20666;-76
2023/08/21 04:03:22;;;;;;;13.10;10.00;;;;;;;23.65;100.00;98691.47;4162106;28;20706;-76
2023/08/21 04:05:25;;;;;;;10.20;8.40;;;;;;;23.63;100.00;98689.94;4171214;28;20638;-78
2023/08/21 04:07:28;;;;;;;8.60;7.80;;;;;;;23.60;100.00;98700.94;4162385;28;20632;-76
2023/08/21 04:09:32;;;;;;;10.57;8.70;;;;;;;23.58;100.00;98695.78;4166847;28;20678;-78
2023/08/21 04:11:36;;;;;;;9.40;8.40;;;;;;;23.56;100.00;98695.13;4164929;28;20633;-76
2023/08/21 04:13:39;;;;;;;9.40;8.50;;;;;;;23.56;100.00;98702.28;4166766;28;20638;-76
2023/08/21 04:15:45;;;;;;;10.30;8.73;;;;;;;23.56;100.00;98703.13;4164638;28;20627;-75
2023/08/21 04:17:48;;;;;;;9.40;8.30;;;;;;;23.56;100.00;98697.78;4158847;28;20631;-76
2023/08/21 04:19:52;;;;;;;10.33;9.10;;;;;;;23.56;100.00;98696.94;4148122;28;21606;-78
2023/08/21 04:21:55;;;;;;;9.10;8.20;;;;;;;23.57;100.00;98701.28;4160846;28;20685;-82
2023/08/21 04:24:00;;;;;;;9.80;8.60;;;;;;;23.56;100.00;98699.59;4167212;28;20688;-82
2023/08/21 04:26:05;;;;;;;11.40;8.50;;;;;;;23.54;100.00;98705.09;4167621;28;20666;-80
2023/08/21 04:28:08;;;;;;;9.50;8.50;;;;;;;23.55;100.00;98700.63;4168932;28;20632;-81
2023/08/21 04:30:11;;;;;;;9.20;8.20;;;;;;;23.57;100.00;98712.75;4165221;28;21084;-81
2023/08/21 04:32:15;;;;;;;9.43;8.53;;;;;;;23.55;100.00;98709.44;4166840;28;20644;-80
2023/08/21 04:34:18;;;;;;;9.80;8.47;;;;;;;23.56;100.00;98713.78;4149941;28;21335;-82
2023/08/21 04:36:21;;;;;;;9.60;7.97;;;;;;;23.53;100.00;98714.13;4166971;28;20756;-80
2023/08/21 04:38:26;;;;;;;12.20;9.40;;;;;;;23.49;100.00;98710.13;4168358;28;21055;-80
2023/08/21 04:40:29;;;;;;;11.43;10.00;;;;;;;23.48;100.00;98713.78;4183274;28;20670;-82
2023/08/21 04:42:33;;;;;;;11.23;10.13;;;;;;;23.50;100.00;98716.28;4185893;28;20634;-80
2023/08/21 04:44:37;;;;;;;12.30;10.90;;;;;;;23.50;100.00;98710.94;4166000;28;20668;-81
2023/08/21 04:46:41;;;;;;;10.57;9.10;;;;;;;23.49;100.00;98710.13;4168399;28;20639;-81
2023/08/21 04:48:44;;;;;;;12.03;9.80;;;;;;;23.45;100.00;98708.78;4170746;28;20706;-81
2023/08/21 04:50:48;;;;;;;9.67;8.70;;;;;;;23.44;100.00;98711.63;4171622;28;20706;-82
2023/08/21 04:52:51;;;;;;;11.00;9.03;;;;;;;23.43;100.00;98716.13;4151954;28;20672;-82
2023/08/21 04:54:55;;;;;;;10.83;9.73;;;;;;;23.43;100.00;98716.13;4168522;28;20670;-82
2023/08/21 04:56:57;;;;;;;9.90;8.77;;;;;;;23.43;100.00;98725.97;4175089;28;20634;-80
2023/08/21 04:59:02;;;;;;;10.77;9.60;;;;;;;23.41;100.00;98715.47;4153445;28;20659;-82
2023/08/21 05:01:06;;;;;;;12.03;9.57;;;;;;;23.40;100.00;98720.97;4173486;28;20643;-82
2023/08/21 05:03:13;;;;;;;11.20;9.00;;;;;;;23.38;100.00;98723.78;4167498;28;20673;-82
2023/08/21 05:05:20;;;;;;;10.83;8.87;;;;;;;23.40;100.00;98726.28;4160535;28;20655;-81
2023/08/21 05:07:23;;;;;;;10.43;9.20;;;;;;;23.40;100.00;98721.78;4156988;28;20645;-81
2023/08/21 05:09:27;;;;;;;12.47;8.70;;;;;;;23.40;100.00;98723.63;4171007;28;20897;-82
2023/08/21 05:11:30;;;;;;;10.40;9.30;;;;;;;23.43;100.00;98726.78;4174053;28;20652;-82
2023/08/21 05:13:33;;;;;;;11.60;9.53;;;;;;;23.45;100.00;98724.75;4170576;28;20989;-81
2023/08/21 05:15:38;;;;;;;12.27;8.83;;;;;;;23.49;100.00;98733.28;4173873;28;20639;-82
2023/08/21 05:17:41;;;;;;;9.40;8.40;;;;;;;23.53;100.00;98731.91;4158005;28;20631;-80
2023/08/21 05:19:45;;;;;;;10.50;8.77;;;;;;;23.61;100.00;98734.59;4145004;28;20675;-84
2023/08/21 05:21:48;;;;;;;9.90;8.63;;;;;;;23.71;100.00;98739.59;4152605;28;20648;-84
2023/08/21 05:23:52;;;;;;;10.73;9.63;;;;;;;23.85;100.00;98746.88;4153961;28;20705;-83
2023/08/21 05:25:55;;;;;;;11.70;9.50;;;;;;;24.01;100.00;98744.16;4169817;28;21012;-80
2023/08/21 05:27:58;;;;;;;10.40;9.20;;;;;;;24.16;100.00;98748.59;4169649;28;21095;-80
2023/08/21 05:30:01;;;;;;;10.27;9.03;;;;;;;24.29;100.00;98748.03;4166230;28;20733;-80
2023/08/21 05:32:06;;;;;;;10.47;9.37;;;;;;;24.43;100.00;98745.50;4164920;28;20636;-75
2023/08/21 05:34:10;;;;;;;9.90;9.00;;;;;;;24.59;100.00;98744.59;4169900;28;20734;-75
2023/08/21 05:36:14;;;;;;;11.93;9.47;;;;;;;24.74;100.00;98738.31;4170200;28;24667;-76
2023/08/21 05:38:17;;;;;;;9.77;8.13;;;;;;;24.90;100.00;98744.38;4153034;28;20634;-75
2023/08/21 05:40:20;;;;;;;9.53;7.67;;;;;;;25.05;99.48;98753.31;4151904;28;20657;-77
2023/08/21 05:42:23;;;;;;;9.33;8.23;;;;;;;25.18;98.52;98749.03;4155276;28;20631;-75
2023/08/21 05:44:27;;;;;;;10.60;9.10;;;;;;;25.33;98.05;98752.56;4151430;28;20660;-76
2023/08/21 05:46:29;;;;;;;9.53;8.53;;;;;;;25.46;97.16;98752.78;4161921;28;20729;-76
2023/08/21 05:48:34;;;;;;;9.97;8.90;;;;;;;25.61;96.72;98757.13;4155864;28;20635;-76
2023/08/21 05:50:37;;;;;;;9.93;8.90;;;;;;;25.77;96.01;98757.00;4171977;28;20636;-75
2023/08/21 05:52:40;;;;;;;11.40;8.67;;;;;;;25.92;95.36;98759.69;4164991;28;20632;-75
2023/08/21 05:54:46;;;;;;;10.93;8.53;;;;;;;26.08;95.22;98764.88;4149040;28;20631;-75
2023/08/21 05:56:49;;;;;;;9.53;8.63;;;;;;;26.21;94.66;98772.06;4170012;28;20708;-76
2023/08/21 05:58:52;;;;;;;10.30;8.93;;;;;;;26.34;94.96;98764.25;4155402;28;21077;-77
2023/08/21 06:00:59;;;;;;;9.20;8.23;;;;;;;26.48;93.99;98762.56;4169434;28;21282;-76
2023/08/21 06:03:03;;;;;;;9.47;8.50;;;;;;;26.60;93.43;98769.91;4168660;28;20688;-75
2023/08/21 06:05:43;;;;;;;9.33;8.43;;;;;;;26.78;92.85;98768.47;4166093;28;20668;-75
2023/08/21 06:07:47;;;;;;;10.40;8.70;;;;;;;26.92;92.04;98772.16;4164450;28;20935;-76
2023/08/21 06:09:50;;;;;;;9.27;8.37;;;;;;;27.02;90.95;98768.16;4150631;28;20735;-76
2023/08/21 06:11:53;;;;;;;9.40;8.50;;;;;;;27.15;90.70;98768.28;4168842;28;20641;-76
2023/08/21 06:13:56;;;;;;;10.40;8.33;;;;;;;27.25;90.35;98769.63;4154480;28;20626;-78
2023/08/21 06:15:59;;;;;;;10.00;9.00;;;;;;;27.39;90.94;98776.75;4163897;28;20626;-76
2023/08/21 06:18:04;;;;;;;9.37;8.40;;;;;;;27.52;90.85;98765.38;4157898;28;20641;-75
2023/08/21 06:20:08;;;;;;;10.60;9.23;;;;;;;27.62;89.92;98772.88;4170765;28;21071;-76
2023/08/21 06:22:13;;;;;;;11.03;9.33;;;;;;;27.63;90.07;98768.31;4150962;28;20748;-76
2023/08/21 06:24:16;;;;;;;10.50;9.50;;;;;;;27.73;90.11;98771.50;4154533;28;20630;-77
2023/08/21 06:26:19;;;;;;;10.90;9.80;;;;;;;27.82;89.44;98778.38;4155081;28;20630;-76
2023/08/21 06:28:23;;;;;;;11.80;9.33;;;;;;;27.97;89.71;98781.81;4171186;28;20704;-75
2023/08/21 06:30:26;;;;;;;10.80;9.70;;;;;;;28.07;88.50;98783.06;4169335;28;20802;-77
2023/08/21 06:32:29;;;;;;;11.20;9.23;;;;;;;28.19;88.94;98777.00;4152937;28;21064;-77
2023/08/21 06:34:31;;;;;;;9.60;8.63;;;;;;;28.34;88.37;98777.72;4160750;28;20671;-82
2023/08/21 06:36:34;;;;;;;10.20;9.20;;;;;;;28.47;87.90;98780.44;4167713;28;20637;-77
2023/08/21 06:38:39;;;;;;;12.00;9.77;;;;;;;28.60;87.61;98784.03;4150479;28;21244;-78
2023/08/21 06:40:42;;;;;;;10.20;9.20;;;;;;;28.76;87.07;98790.94;4163691;28;20657;-78
2023/08/21 06:42:45;;;;;;;11.10;8.37;;;;;;;28.91;86.62;98788.91;4159733;28;21355;-85
2023/08/21 06:44:49;;;;;;;9.93;8.90;;;;;;;29.02;86.44;98792.69;4152701;28;20745;-83
2023/08/21 06:46:52;;;;;;;9.87;8.87;;;;;;;29.14;86.11;98783.00;4153782;28;20682;-82
2023/08/21 06:48:55;;;;;;;10.97;9.50;;;;;;;29.22;86.02;98790.03;4152032;28;20633;-84
2023/08/21 06:50:58;;;;;;;9.67;8.73;;;;;;;29.27;85.29;98782.22;4150820;28;20659;-84
2023/08/21 06:53:00;;;;;;;9.97;8.97;;;;;;;29.37;85.81;98782.66;4160419;28;22374;-84
2023/08/21 06:55:06;;;;;;;10.73;8.80;;;;;;;29.43;86.17;98779.13;4164971;28;20632;-82
2023/08/21 06:57:09;;;;;;;10.00;8.97;;;;;;;29.52;85.19;98786.78;4166886;28;20669;-84
2023/08/21 06:59:15;;;;;;;11.27;9.43;;;;;;;29.63;84.82;98795.06;4168582;28;20645;-83
2023/08/21 07:01:18;;;;;;;10.20;9.20;;;;;;;29.75;83.80;98785.31;4165796;28;20737;-83
2023/08/21 07:03:21;;;;;;;10.53;9.00;;;;;;;29.89;83.95;98780.78;4170483;28;20641;-84
2023/08/21 07:05:24;;;;;;;11.40;9.33;;;;;;;30.03;84.08;98780.59;4156155;28;20819;-83
2023/08/21 07:07:27;;;;;;;10.40;9.33;;;;;;;30.16;82.92;98785.91;4165153;28;21210;-85
2023/08/21 07:09:31;;;;;;;10.43;9.43;;;;;;;30.23;82.40;98789.44;4168726;28;20623;-85
2023/08/21 07:11:36;;;;;;;10.37;9.40;;;;;;;30.31;82.33;98787.38;4170244;28;20636;-84
2023/08/21 07:13:40;;;;;;;12.70;11.17;;;;;;;30.44;83.16;98787.34;4153319;28;21036;-85
2023/08/21 07:15:43;;;;;;;10.33;9.03;;;;;;;30.49;81.54;98787.53;4170355;28;20629;-85
2023/08/21 07:17:46;;;;;;;11.30;9.73;;;;;;;30.52;81.95;98784.41;4172912;28;20758;-85
2023/08/21 07:19:52;;;;;;;11.03;9.87;;;;;;;30.59;83.88;98785.22;4165679;28;20639;-86
2023/08/21 07:21:55;;;;;;;10.20;9.20;;;;;;;30.71;81.67;98778.13;4164538;28;20654;-85
2023/08/21 07:23:58;;;;;;;10.40;9.50;;;;;;;30.83;81.03;98785.31;4171162;28;21083;-85
2023/08/21 07:26:03;;;;;;;9.97;8.97;;;;;;;30.99;80.01;98782.97;4171115;28;21218;-84
2023/08/21 07:28:09;;;;;;;11.00;10.00;;;;;;;31.05;79.93;98787.50;4157349;28;20642;-85
2023/08/21 07:30:13;;;;;;;9.30;8.40;;;;;;;31.18;80.43;98781.19;4173945;28;21257;-85
2023/08/21 07:32:16;;;;;;;9.40;8.47;;;;;;;31.23;79.85;98782.22;4167443;28;20634;-85
2023/08/21 07:34:19;;;;;;;10.67;9.20;;;;;;;31.23;79.43;98782.22;4171916;28;20710;-86
2023/08/21 07:36:23;;;;;;;10.23;9.13;;;;;;;31.26;81.42;98791.72;4157198;28;20630;-85
2023/08/21 07:38:26;;;;;;;11.07;9.93;;;;;;;31.30;79.14;98791.06;4175482;28;20628;-83
2023/08/21 07:40:29;;;;;;;10.83;9.70;;;;;;;31.39;79.44;98785.22;4167232;28;20704;-85
2023/08/21 07:42:32;;;;;;;10.60;9.47;;;;;;;31.41;77.96;98788.56;4167270;28;20990;-84
2023/08/21 07:44:37;;;;;;;10.60;9.47;;;;;;;31.61;80.28;98788.41;4153099;28;20626;-84
2023/08/21 07:46:40;;;;;;;10.00;8.97;;;;;;;31.74;78.74;98783.72;4168455;28;21223;-82
2023/08/21 07:48:43;;;;;;;10.53;9.00;;;;;;;31.88;77.28;98791.47;4167320;28;20661;-85
2023/08/21 07:50:52;;;;;;;11.37;9.30;;;;;;;31.99;78.85;98788.06;4155436;28;20629;-86
2023/08/21 07:52:55;;;;;;;16.90;8.67;;;;;;;32.07;74.97;98798.63;4144870;28;20622;-77
2023/08/21 07:55:00;;;;;;;9.97;8.77;;;;;;;31.97;75.63;98790.19;4162995;28;20638;-78
2023/08/21 07:57:04;;;;;;;9.87;8.30;;;;;;;31.85;75.79;98784.88;4169950;28;20625;-77
2023/08/21 07:59:07;;;;;;;9.77;8.87;;;;;;;31.75;77.04;98784.53;4161475;28;20741;-77
2023/08/21 08:01:12;;;;;;;9.60;8.60;;;;;;;31.62;78.04;98784.63;4163550;28;20644;-79
2023/08/21 08:03:15;;;;;;;10.10;9.13;;;;;;;31.49;76.65;98784.75;4164919;28;20648;-76
2023/08/21 08:05:18;;;;;;;10.13;8.87;;;;;;;31.41;76.32;98782.34;4153514;28;20699;-77
2023/08/21 08:07:22;;;;;;;9.63;8.63;;;;;;;31.45;78.05;98780.84;4162552;28;20724;-76
2023/08/21 08:09:25;;;;;;;10.83;8.50;;;;;;;31.56;76.61;98783.66;4165194;28;21217;-78
2023/08/21 08:11:28;;;;;;;9.13;8.37;;;;;;;31.66;77.10;98785.88;4148573;28;20635;-76
2023/08/21 08:13:32;;;;;;;11.20;10.00;;;;;;;31.64;77.78;98787.97;4163275;28;20629;-78
2023/08/21 08:15:35;;;;;;;10.47;9.40;;;;;;;31.67;79.18;98779.44;4166171;28;20740;-76
2023/08/21 08:17:40;;;;;;;9.37;8.47;;;;;;;31.68;77.73;98784.59;4173930;28;20755;-79
2023/08/21 08:19:43;;;;;;;9.63;8.73;;;;;;;31.66;78.12;98780.47;4180931;28;20655;-81
2023/08/21 08:21:46;;;;;;;12.80;8.30;;;;;;;31.64;77.64;98772.59;4163907;28;20657;-77
2023/08/21 08:23:49;;;;;;;11.40;9.47;;;;;;;31.87;78.68;98778.19;4168850;28;20643;-84
2023/08/21 08:25:53;;;;;;;10.10;9.10;;;;;;;32.09;78.39;98785.69;4151654;28;20633;-82
2023/08/21 08:27:56;;;;;;;10.20;9.27;;;;;;;32.23;79.46;98784.50;4168352;28;21223;-79
2023/08/21 08:29:59;;;;;;;10.23;9.10;;;;;;;32.27;77.44;98785.72;4165794;28;21790;-78
2023/08/21 08:32:03;;;;;;;10.40;8.80;;;;;;;32.31;75.71;98783.38;4164747;28;20637;-81
2023/08/21 08:34:08;;;;;;;10.83;9.73;;;;;;;32.29;76.20;98782.81;4166463;28;21247;-85
2023/08/21 08:36:11;;;;;;;10.17;8.87;;;;;;;32.54;76.95;98787.13;4166487;28;20988;-77
2023/08/21 08:38:14;;;;;;;9.90;8.90;;;;;;;32.75;77.79;98789.34;4171423;28;20632;-77
2023/08/21 08:40:18;;;;;;;10.27;9.27;;;;;;;32.95;76.36;98785.38;4155031;28;20661;-77
2023/08/21 08:42:20;;;;;;;10.27;9.27;;;;;;;33.03;77.00;98794.00;4165190;28;21225;-77
2023/08/21 08:44:25;;;;;;;9.93;8.93;;;;;;;33.00;76.34;98778.22;4164270;28;20676;-76
2023/08/21 08:46:30;;;;;;;10.33;9.20;;;;;;;32.93;74.29;98776.63;4163415;28;20632;-76
2023/08/21 08:48:33;;;;;;;9.70;8.80;;;;;;;32.90;76.11;98780.59;4159887;28;21183;-76
2023/08/21 08:50:38;;;;;;;9.97;8.97;;;;;;;32.98;74.61;98779.50;4167498;28;20732;-78
2023/08/21 08:52:42;;;;;;;9.60;8.60;;;;;;;33.13;74.31;98771.81;4165043;28;20636;-80
2023/08/21 08:54:45;;;;;;;11.00;10.00;;;;;;;33.18;75.12;98770.03;4163554;28;20638;-77
2023/08/21 08:56:48;;;;;;;10.70;9.70;;;;;;;33.23;74.19;98772.91;4158042;28;20634;-78
2023/08/21 08:58:52;;;;;;;9.90;8.90;;;;;;;33.26;73.74;98769.72;4162637;28;20644;-77
2023/08/21 09:00:55;;;;;;;11.23;9.90;;;;;;;33.36;75.70;98769.97;4160128;28;20993;-86
2023/08/21 09:02:58;;;;;;;9.80;8.90;;;;;;;33.45;75.40;98776.75;4165319;28;20664;-87
2023/08/21 09:05:02;;;;;;;11.90;8.67;;;;;;;33.49;72.69;98773.34;4159603;28;20653;-77
2023/08/21 09:07:10;;;;;;;10.33;9.27;;;;;;;33.52;74.54;98774.78;4153085;28;20642;-79
2023/08/21 09:09:13;;;;;;;11.07;9.43;;;;;;;33.59;74.58;98775.47;4161685;28;20640;-77
2023/08/21 09:11:19;;;;;;;9.30;8.40;;;;;;;33.64;73.66;98771.00;4149565;28;20724;-80
2023/08/21 09:13:22;;;;;;;10.33;9.43;;;;;;;33.76;77.54;98773.75;4169171;28;20652;-82
2023/08/21 09:15:27;;;;;;;11.60;10.40;;;;;;;33.78;74.25;98768.91;4168330;28;20671;-79
2023/08/21 09:17:43;;;;;;;9.70;8.80;;;;;;;33.74;74.19;98765.00;4167842;28;20668;-80
2023/08/21 09:19:46;;;;;;;10.00;8.67;;;;;;;33.75;72.58;98764.78;4151091;28;20634;-79
2023/08/21 09:21:50;;;;;;;9.60;8.63;;;;;;;33.77;71.24;98765.38;4157010;28;20774;-80
2023/08/21 09:23:59;;;;;;;10.27;9.27;;;;;;;33.72;70.57;98756.31;4160292;28;21000;-78
2023/08/21 09:26:03;;;;;;;9.40;8.40;;;;;;;33.71;70.74;98751.94;4161885;28;20686;-79
2023/08/21 09:28:07;;;;;;;9.10;8.13;;;;;;;33.78;71.93;98755.38;4165796;28;20719;-83
2023/08/21 09:30:14;;;;;;;9.00;8.10;;;;;;;33.75;69.97;98759.38;4165661;28;20633;-83
2023/08/21 09:32:17;;;;;;;12.17;8.97;;;;;;;33.75;69.63;98762.06;4161530;28;20636;-80
2023/08/21 09:34:21;;;;;;;10.30;9.23;;;;;;;33.69;68.84;98752.16;4159239;28;20641;-86
2023/08/21 09:36:25;;;;;;;10.83;8.23;;;;;;;33.67;71.58;98748.06;4164041;28;20668;-82